Le Grand, CA (95333)

7:56 AM PDT on August 27, 2014 (GMT -0700)
MAP PLANADA (P305) CA PSD | Change Station
CLOSE
Current Station
Personal Weather Station
Location: Planada, CA
Elevation: 419 ft
Nearby Weather Stations

Elev 419 ft 37.35 °N, 120.20 °W | Updated 56 minutes ago

Clear
Clear
66 °F
Feels Like 66 °F
N
1
Wind Variable Wind from East
Gusts 0.0 mph

Today
High -- | Low -- °F
--% Chance of Precip.
Yesterday
High -- | Low -- °F
Precip. -- in
6:27 AM 7:36 PM
Waxing Crescent, 4% visible
Pressure 30.01 in
Visibility 6.0 miles
Clouds Clear
Dew Point 48 °F
Humidity 52%
Rainfall -999.00 in
Snow Depth Not available.
UV 0 out of 12
Pollen 8.90 out of 12
Air Quality Not available.
Flu Activity Not available.
METAR KMCE 271353Z AUTO 24003KT 6SM HZ CLR 17/12 A3001 RMK AO2 SLP161 T01670122

More Conditions Fewer Conditions

Pressure 30.01 in
Visibility 6.0 miles
Clouds Clear
Dew Point 48 °F
Humidity 52%
Rainfall -999.00 in
Snow Depth Not available.
UV 0 out of 12
Pollen 8.90 out of 12
Air Quality Not available.
Flu Activity Not available.
METAR KMCE 271353Z AUTO 24003KT 6SM HZ CLR 17/12 A3001 RMK AO2 SLP161 T01670122

More Conditions Fewer Conditions

10-Day Weather Forecast

Almanac

Astronomy

Aug. 27, 2014 Rise Set
Actual Time 6:27 AM PDT 7:36 PM PDT
Civil Twilight 6:00 AM PDT 8:03 PM PDT
Nautical Twilight 5:28 AM PDT 8:35 PM PDT
Astronomical Twilight 4:55 AM PDT 9:08 PM PDT
Moon 8:24 AM PDT 8:35 PM PDT
Length of Visible Light 14h 03m
Length of Day
13h 09m
Tomorrow will be 2m 15s shorter.
Waxing Crescent, 4% of the Moon is Illuminated
Today
Waxing Crescent
Sep 2
First Quarter
Sep 8
Full
Sep 15
Last Quarter
Sep 24
New

Today's Extremes

State Highs State Lows

Community

WunderPhotos

Upload Photos

1,747,701 photos uploaded!

Nearby

Air Quality

  Air Quality AQ Index Pollutant
Wednesday Moderate
OZONE
Thursday Moderate
OZONE
Friday Moderate
OZONE
Saturday Moderate
OZONE
Sunday Moderate
OZONE

Snow Depth

Station Depth Elevation
Leavitt Lake 0 in 9400 ft
Sonora Pass 0 in 8800 ft
Leavitt Meadows 1 in 7200 ft
Summit Meadow 2 in 9122 ft
Ebbetts Pass 0 in 8700 ft

Earthquake Activity

City Distance Mag. Time & Date
Soledad, California 68 miles 2.6 12:15 PM PDT
2014-08-26
Minimum magnitude displayed is 2.5.

Coastal Water Temperatures

Place Temperature
No Stations Reporting

Nearby Weather Stations